Terminal Aerodrome Forecast
Issued by NWS Paducah, KY

Home | Current Version | Previous Version | Text Only | Print | Product List | Glossary Off
Versions: 1 2 3 4 5 6 7 8 9 10 11 12 13 14

000
FTUS43 KPAH 071140
TAFEVV
TAF
KEVV 071140Z 0712/0812 22007KT P6SM SCT250
     FM071500 22013G22KT P6SM BKN200
     FM080000 25007KT P6SM SCT050 OVC100 PROB30 0802/0806 -RA=

USA.gov is the U.S. government's official web portal to all federal, state and local government web resources and services.